Berlin — 9HA2295 — position and weather

sailwx.info

Track history (hours):
 
Tides and Currents Weather Stations Pressure Air Temp Water Temp Dewpoint Dewpoint Depression Visibility Wind Speed Wind Dir Waves Ship Positions

Berlin

Last reported at 2016-Aug-26 04:33 UTC. Time now 2016-Aug-26 04:57 UTC.
Position N 53°06' E 004°15'.

Length 140 m; draft 5.1 m.

Type: Ship. MMSI: 248277000.

Date/timePositionNaut miles runAvg speedWind from/ knotsBaromVisibWave heightAir tempDewpointWater temp
2016-Aug-26 04:33N 53°06' E 004°15'1414.6
2016-Aug-26 03:33N 53°17' E 004°30'1413.8
2016-Aug-26 02:33N 53°29' E 004°42'1413.5
2016-Aug-26 01:33N 53°34' E 005°03'1312.9
2016-Aug-26 00:34N 53°38' E 005°24'1312.9
2016-Aug-25 23:34N 53°42' E 005°44'1313.2
2016-Aug-25 22:33N 53°46' E 006°06'1414.3
2016-Aug-25 21:33N 53°50' E 006°29'1515.2
2016-Aug-25 20:33N 53°54' E 006°54'1515.4
2016-Aug-25 19:33N 53°58' E 007°19'1313.2
2016-Aug-25 18:33N 53°57' E 007°42'1313.5
2016-Aug-25 17:33N 53°51' E 008°02'1414.1
2016-Aug-25 16:33N 53°42' E 008°21'1110.7
2016-Aug-25 15:31N 53°34' E 008°33'0 0.0
2016-Aug-25 14:31N 53°34' E 008°33'0 0.0
2016-Aug-25 13:28N 53°34' E 008°33'0 0.0
2016-Aug-25 12:31N 53°34' E 008°33'0 0.0
2016-Aug-25 11:31N 53°34' E 008°33'0 0.0
2016-Aug-25 10:31N 53°34' E 008°33'0 0.0
2016-Aug-25 09:28N 53°34' E 008°33'0 0.0
2016-Aug-25 08:31N 53°34' E 008°33'0 0.0
2016-Aug-25 07:31N 53°34' E 008°33'0 0.0
2016-Aug-25 06:31N 53°34' E 008°33'2211.1
2016-Aug-25 04:33N 53°49' E 008°07'1212.0
2016-Aug-25 03:33N 53°53' E 007°47'1212.3
2016-Aug-25 02:33N 54°02' E 007°34'1413.7
2016-Aug-25 01:33N 54°14' E 007°22'1312.9
2016-Aug-25 00:33N 54°24' E 007°08'1313.0
2016-Aug-24 23:33N 54°33' E 006°52'1513.6
2016-Aug-24 22:29N 54°44' E 006°35'1514.4
2016-Aug-24 21:28N 54°56' E 006°21'2814.1
2016-Aug-24 19:27N 55°20' E 005°54'18614.2
2016-Aug-24 06:18N 57°47' E 002°28'314 9.2
2016-Aug-22 20:15N 61°25' W 005°00'1014.0
2016-Aug-22 19:33N 61°32' W 005°15'1413.9
2016-Aug-22 18:33N 61°41' W 005°36'1414.1
2016-Aug-22 17:33N 61°51' W 005°57'1414.4
2016-Aug-22 16:33N 62°01' W 006°19'1414.2
2016-Aug-22 15:34N 62°12' W 006°38'3 3.3
2016-Aug-22 14:33N 62°15' W 006°35'0 0.0
2016-Aug-22 13:33N 62°15' W 006°35'0 0.0
2016-Aug-22 12:33N 62°15' W 006°35'0 0.0
2016-Aug-22 11:33N 62°15' W 006°35'0 0.0
2016-Aug-22 10:33N 62°15' W 006°35'4 3.7
2016-Aug-22 09:33N 62°17' W 006°42'1212.2
2016-Aug-22 08:33N 62°29' W 006°52'1413.5
2016-Aug-22 07:33N 62°38' W 007°13'1413.7
2016-Aug-22 06:33N 62°48' W 007°34'1414.1
2016-Aug-22 05:34N 62°57' W 007°56'  
2016-Aug-16 17:21N 61°44' W 013°01'1113.8
2016-Aug-16 16:34N 61°39' W 012°41'8313.7
2016-Aug-16 10:33N 61°02' W 010°07'1513.9
2016-Aug-16 09:30N 60°55' W 009°41'1313.5
2016-Aug-16 08:33N 60°49' W 009°17'  
Track history (hours):
 
Tides and Currents Weather Stations Pressure Air Temp Water Temp Dewpoint Dewpoint Depression Visibility Wind Speed Wind Dir Waves Ship Positions

Berlin

Last reported at 2016-Aug-26 04:33 UTC. Time now 2016-Aug-26 04:57 UTC.
Position N 53°06' E 004°15'.

Length 140 m; draft 5.1 m.

Type: Ship. MMSI: 248277000.

Date/timePositionNaut miles runAvg speedWind from/ knotsBaromVisibWave heightAir tempDewpointWater temp
2016-Aug-26 04:33N 53°06' E 004°15'1414.6
2016-Aug-26 03:33N 53°17' E 004°30'1413.8
2016-Aug-26 02:33N 53°29' E 004°42'1413.5
2016-Aug-26 01:33N 53°34' E 005°03'1312.9
2016-Aug-26 00:34N 53°38' E 005°24'1312.9
2016-Aug-25 23:34N 53°42' E 005°44'1313.2
2016-Aug-25 22:33N 53°46' E 006°06'1414.3
2016-Aug-25 21:33N 53°50' E 006°29'1515.2
2016-Aug-25 20:33N 53°54' E 006°54'1515.4
2016-Aug-25 19:33N 53°58' E 007°19'1313.2
2016-Aug-25 18:33N 53°57' E 007°42'1313.5
2016-Aug-25 17:33N 53°51' E 008°02'1414.1
2016-Aug-25 16:33N 53°42' E 008°21'1110.7
2016-Aug-25 15:31N 53°34' E 008°33'0 0.0
2016-Aug-25 14:31N 53°34' E 008°33'0 0.0
2016-Aug-25 13:28N 53°34' E 008°33'0 0.0
2016-Aug-25 12:31N 53°34' E 008°33'0 0.0
2016-Aug-25 11:31N 53°34' E 008°33'0 0.0
2016-Aug-25 10:31N 53°34' E 008°33'0 0.0
2016-Aug-25 09:28N 53°34' E 008°33'0 0.0
2016-Aug-25 08:31N 53°34' E 008°33'0 0.0
2016-Aug-25 07:31N 53°34' E 008°33'0 0.0
2016-Aug-25 06:31N 53°34' E 008°33'2211.1
2016-Aug-25 04:33N 53°49' E 008°07'1212.0
2016-Aug-25 03:33N 53°53' E 007°47'1212.3
2016-Aug-25 02:33N 54°02' E 007°34'1413.7
2016-Aug-25 01:33N 54°14' E 007°22'1312.9
2016-Aug-25 00:33N 54°24' E 007°08'1313.0
2016-Aug-24 23:33N 54°33' E 006°52'1513.6
2016-Aug-24 22:29N 54°44' E 006°35'1514.4
2016-Aug-24 21:28N 54°56' E 006°21'2814.1
2016-Aug-24 19:27N 55°20' E 005°54'18614.2
2016-Aug-24 06:18N 57°47' E 002°28'314 9.2
2016-Aug-22 20:15N 61°25' W 005°00'1014.0
2016-Aug-22 19:33N 61°32' W 005°15'1413.9
2016-Aug-22 18:33N 61°41' W 005°36'1414.1
2016-Aug-22 17:33N 61°51' W 005°57'1414.4
2016-Aug-22 16:33N 62°01' W 006°19'1414.2
2016-Aug-22 15:34N 62°12' W 006°38'3 3.3
2016-Aug-22 14:33N 62°15' W 006°35'0 0.0
2016-Aug-22 13:33N 62°15' W 006°35'0 0.0
2016-Aug-22 12:33N 62°15' W 006°35'0 0.0
2016-Aug-22 11:33N 62°15' W 006°35'0 0.0
2016-Aug-22 10:33N 62°15' W 006°35'4 3.7
2016-Aug-22 09:33N 62°17' W 006°42'1212.2
2016-Aug-22 08:33N 62°29' W 006°52'1413.5
2016-Aug-22 07:33N 62°38' W 007°13'1413.7
2016-Aug-22 06:33N 62°48' W 007°34'1414.1
2016-Aug-22 05:34N 62°57' W 007°56'  
2016-Aug-16 17:21N 61°44' W 013°01'1113.8
2016-Aug-16 16:34N 61°39' W 012°41'8313.7
2016-Aug-16 10:33N 61°02' W 010°07'1513.9
2016-Aug-16 09:30N 60°55' W 009°41'1313.5
2016-Aug-16 08:33N 60°49' W 009°17'  

Dump ship's entire track history